createdAt,value
2019-03-22T00:03:51.918Z,92.70
2019-03-22T00:08:56.783Z,92.70
2019-03-22T00:14:01.548Z,92.70
2019-03-22T00:19:06.448Z,92.60
2019-03-22T00:24:11.209Z,92.40
2019-03-22T00:29:16.068Z,92.30
2019-03-22T00:34:20.919Z,92.40
2019-03-22T00:39:25.758Z,92.40
2019-03-22T00:44:30.702Z,92.50
2019-03-22T00:49:35.475Z,92.50
2019-03-22T00:54:40.258Z,92.80
2019-03-22T00:59:45.443Z,92.50
2019-03-22T01:04:50.289Z,92.40
2019-03-22T01:09:55.200Z,92.50
2019-03-22T01:15:00.004Z,92.60
2019-03-22T01:20:07.154Z,92.70
2019-03-22T01:25:12.084Z,92.70
2019-03-22T01:30:18.020Z,92.80
2019-03-22T01:35:22.878Z,92.80
2019-03-22T01:40:27.799Z,92.80
2019-03-22T01:45:32.646Z,92.90
2019-03-22T01:50:37.484Z,93.00
2019-03-22T01:55:42.459Z,93.00
2019-03-22T02:00:47.375Z,93.10
2019-03-22T02:05:53.508Z,93.20
2019-03-22T02:10:58.834Z,93.30
2019-03-22T02:16:04.092Z,93.40
2019-03-22T02:21:09.443Z,93.50
2019-03-22T02:26:15.379Z,93.60
2019-03-22T02:31:20.568Z,93.70
2019-03-22T02:36:25.923Z,93.70
2019-03-22T02:41:30.875Z,93.70
2019-03-22T02:46:36.213Z,93.70
2019-03-22T02:51:41.190Z,93.90
2019-03-22T02:56:46.450Z,94.00
2019-03-22T03:01:51.427Z,94.00
2019-03-22T03:06:56.363Z,93.90
2019-03-22T03:12:01.316Z,93.80
2019-03-22T03:17:06.157Z,93.80
2019-03-22T03:22:11.008Z,93.60
2019-03-22T03:27:15.852Z,93.80
2019-03-22T03:32:20.985Z,93.80
2019-03-22T03:37:25.811Z,93.70
2019-03-22T03:42:30.593Z,93.70
2019-03-22T03:47:35.422Z,93.80
2019-03-22T03:52:40.198Z,94.00
2019-03-22T03:57:45.042Z,94.00
2019-03-22T04:02:49.741Z,94.10
2019-03-22T04:07:54.601Z,94.30
2019-03-22T04:12:59.696Z,94.50
2019-03-22T04:18:04.544Z,94.60
2019-03-22T04:23:09.378Z,94.50
2019-03-22T04:28:14.260Z,94.70
2019-03-22T04:33:18.932Z,94.90
2019-03-22T04:38:23.781Z,94.80
2019-03-22T04:43:28.608Z,94.90
2019-03-22T04:48:36.458Z,94.70
2019-03-22T04:53:44.226Z,94.70
2019-03-22T04:58:50.970Z,94.20
2019-03-22T05:03:58.901Z,94.30
2019-03-22T05:09:03.659Z,94.10
2019-03-22T05:14:08.752Z,94.00
2019-03-22T05:19:14.594Z,94.30
2019-03-22T05:24:20.432Z,94.30
2019-03-22T05:29:30.887Z,94.30
2019-03-22T05:34:33.520Z,94.40
2019-03-22T05:39:38.299Z,94.10
2019-03-22T05:44:43.136Z,94.00
2019-03-22T05:49:47.906Z,93.90
2019-03-22T05:54:52.740Z,94.10
2019-03-22T05:59:57.506Z,93.80
2019-03-22T06:05:02.190Z,93.70
2019-03-22T06:10:07.135Z,93.50
2019-03-22T06:15:12.295Z,93.40
2019-03-22T06:20:17.139Z,93.40
2019-03-22T06:25:21.927Z,93.30
2019-03-22T06:30:26.759Z,93.00
2019-03-22T06:35:31.596Z,92.80
2019-03-22T06:40:36.395Z,93.00
2019-03-22T06:45:41.243Z,92.90
2019-03-22T06:50:46.011Z,93.00
2019-03-22T06:55:50.765Z,92.30
2019-03-22T07:00:55.709Z,92.60
2019-03-22T07:06:00.491Z,92.20
2019-03-22T07:11:05.321Z,92.10
2019-03-22T07:16:10.328Z,91.60
2019-03-22T07:21:15.162Z,90.90
2019-03-22T07:26:20.007Z,90.20
2019-03-22T07:31:24.835Z,90.90
2019-03-22T07:36:29.673Z,90.20
2019-03-22T07:41:34.496Z,89.50
2019-03-22T07:46:39.326Z,87.40
2019-03-22T07:51:44.163Z,86.20
2019-03-22T07:56:48.852Z,84.20
2019-03-22T08:01:53.621Z,84.50
2019-03-22T08:06:58.363Z,84.30
2019-03-22T08:12:03.201Z,81.70
2019-03-22T08:17:08.101Z,80.60
2019-03-22T08:22:12.924Z,81.50
2019-03-22T08:27:17.755Z,80.80
2019-03-22T08:32:22.544Z,78.90
2019-03-22T08:37:27.341Z,79.60
2019-03-22T08:42:32.423Z,78.70
2019-03-22T08:47:37.242Z,78.30
2019-03-22T08:52:42.067Z,78.10
2019-03-22T08:57:46.903Z,79.00
2019-03-22T09:02:51.744Z,79.10
2019-03-22T09:07:56.492Z,79.50
2019-03-22T09:13:01.327Z,79.10
2019-03-22T09:18:06.347Z,77.10
2019-03-22T09:23:11.093Z,76.00
2019-03-22T09:28:15.941Z,77.00
2019-03-22T09:33:20.769Z,76.70
2019-03-22T09:38:28.438Z,76.80
2019-03-22T09:43:31.912Z,78.60
2019-03-22T09:48:36.656Z,79.50
2019-03-22T09:53:41.416Z,80.70
2019-03-22T09:58:46.254Z,79.50
2019-03-22T10:03:51.023Z,80.60
2019-03-22T10:08:55.786Z,79.60
2019-03-22T10:14:00.620Z,79.00
2019-03-22T10:19:05.602Z,77.90
2019-03-22T10:24:10.333Z,78.10
2019-03-22T10:29:15.082Z,76.90
2019-03-22T10:34:19.865Z,75.00
2019-03-22T10:39:24.707Z,75.00
2019-03-22T10:44:29.580Z,75.10
2019-03-22T10:49:34.454Z,76.30
2019-03-22T10:54:39.316Z,77.70
2019-03-22T10:59:44.245Z,76.50
2019-03-22T11:04:49.083Z,77.50
2019-03-22T11:09:53.974Z,77.40
2019-03-22T11:14:58.832Z,77.90
2019-03-22T11:20:08.816Z,77.40
2019-03-22T11:25:14.364Z,75.10
2019-03-22T11:30:19.509Z,74.90
2019-03-22T11:35:24.432Z,74.50
2019-03-22T11:40:29.477Z,73.60
2019-03-22T11:45:34.261Z,71.00
2019-03-22T11:50:39.180Z,72.70
2019-03-22T11:55:44.136Z,74.00
2019-03-22T12:00:49.104Z,72.90
2019-03-22T12:05:54.369Z,74.00
2019-03-22T12:10:59.550Z,71.70
2019-03-22T12:16:04.394Z,72.40
2019-03-22T12:21:09.340Z,69.60
2019-03-22T12:26:14.714Z,70.90
2019-03-22T12:31:19.594Z,67.00
2019-03-22T12:36:24.546Z,65.50
2019-03-22T12:41:29.411Z,64.10
2019-03-22T12:46:34.380Z,61.50
2019-03-22T12:51:39.433Z,61.60
2019-03-22T12:56:44.469Z,61.00
2019-03-22T13:01:49.426Z,62.40
2019-03-22T13:06:54.376Z,65.60
2019-03-22T13:11:59.359Z,61.80
2019-03-22T13:17:04.526Z,63.50
2019-03-22T13:22:10.039Z,65.50
2019-03-22T13:27:15.286Z,66.80
2019-03-22T13:32:20.268Z,65.00
2019-03-22T13:37:25.532Z,64.30
2019-03-22T13:42:30.677Z,64.70
2019-03-22T13:47:35.875Z,63.10
2019-03-22T13:52:40.939Z,64.50
2019-03-22T13:57:45.992Z,65.20
2019-03-22T14:02:51.171Z,65.30
2019-03-22T14:07:56.304Z,66.20
2019-03-22T14:13:02.461Z,66.30
2019-03-22T14:18:07.625Z,67.80
2019-03-22T14:23:12.816Z,65.10
2019-03-22T14:28:18.380Z,63.80
2019-03-22T14:33:23.680Z,63.70
2019-03-22T14:38:28.747Z,63.70
2019-03-22T14:43:33.814Z,64.10
2019-03-22T14:48:39.079Z,65.10
2019-03-22T14:53:44.654Z,67.40
2019-03-22T14:58:52.184Z,67.40
2019-03-22T15:03:56.900Z,64.50
2019-03-22T15:09:02.063Z,64.00
2019-03-22T15:14:25.186Z,62.20
2019-03-22T15:19:47.984Z,62.10
2019-03-22T15:25:09.656Z,62.70
2019-03-22T15:30:32.693Z,60.70
2019-03-22T15:35:39.936Z,61.60
2019-03-22T15:40:45.172Z,60.50
2019-03-22T15:45:50.248Z,63.20
2019-03-22T15:50:55.125Z,65.00
2019-03-22T15:56:00.271Z,64.40
2019-03-22T16:01:05.517Z,63.80
2019-03-22T16:06:10.393Z,63.80
2019-03-22T16:11:15.360Z,64.50
2019-03-22T16:16:20.483Z,64.10
2019-03-22T16:21:25.735Z,63.10
2019-03-22T16:26:30.827Z,63.40
2019-03-22T16:31:37.208Z,62.90
2019-03-22T16:36:42.299Z,64.60
2019-03-22T16:41:47.415Z,64.80
2019-03-22T16:46:52.567Z,65.50
2019-03-22T16:51:58.088Z,67.00
2019-03-22T16:57:02.921Z,68.50
2019-03-22T17:02:07.968Z,69.90
2019-03-22T17:07:13.141Z,70.70
2019-03-22T17:12:18.599Z,72.30
2019-03-22T17:17:23.679Z,73.30
2019-03-22T17:22:28.966Z,74.50
2019-03-22T17:27:34.042Z,75.60
2019-03-22T17:32:39.612Z,76.50
2019-03-22T17:37:44.944Z,76.70
2019-03-22T17:42:49.822Z,77.20
2019-03-22T17:47:55.146Z,78.10
2019-03-22T17:53:00.358Z,79.40
2019-03-22T17:58:05.808Z,80.30
2019-03-22T18:03:10.998Z,80.80
2019-03-22T18:08:15.853Z,81.40
2019-03-22T18:13:20.965Z,81.90
2019-03-22T18:18:26.062Z,83.00
2019-03-22T18:23:35.617Z,84.30
2019-03-22T18:28:38.016Z,83.60
2019-03-22T18:33:44.768Z,84.00
2019-03-22T18:38:50.167Z,84.60
2019-03-22T18:43:55.059Z,84.50
2019-03-22T18:49:00.037Z,85.20
2019-03-22T18:54:05.204Z,85.30
2019-03-22T18:59:10.360Z,86.30
2019-03-22T19:04:15.548Z,88.00
2019-03-22T19:09:21.891Z,90.00
2019-03-22T19:14:28.156Z,89.70
2019-03-22T19:19:33.039Z,90.00
2019-03-22T19:24:38.218Z,90.40
2019-03-22T19:29:44.554Z,90.60
2019-03-22T19:34:54.397Z,90.70
2019-03-22T19:39:56.532Z,90.50
2019-03-22T19:45:02.808Z,91.00
2019-03-22T19:50:12.930Z,91.20
2019-03-22T19:55:18.002Z,91.50
2019-03-22T20:00:23.060Z,91.70
2019-03-22T20:05:30.950Z,91.90
2019-03-22T20:10:36.124Z,92.50
2019-03-22T20:15:42.436Z,92.60
2019-03-22T20:20:47.618Z,92.60
2019-03-22T20:25:54.336Z,92.50
2019-03-22T20:31:03.267Z,92.90
2019-03-22T20:36:10.223Z,92.50
2019-03-22T20:41:15.207Z,92.70
2019-03-22T20:46:21.169Z,92.50
2019-03-22T20:51:26.246Z,92.50
2019-03-22T20:56:31.403Z,92.60
2019-03-22T21:01:36.643Z,92.20
2019-03-22T21:06:41.705Z,92.50
2019-03-22T21:11:46.793Z,92.50
2019-03-22T21:16:51.931Z,92.40
2019-03-22T21:21:57.063Z,92.20
2019-03-22T21:27:03.218Z,92.60
2019-03-22T21:32:08.292Z,92.30
2019-03-22T21:37:15.204Z,92.20
2019-03-22T21:42:20.076Z,92.20
2019-03-22T21:47:25.329Z,92.30
2019-03-22T21:52:31.442Z,92.50
2019-03-22T21:57:36.523Z,92.20
2019-03-22T22:02:41.792Z,92.60
2019-03-22T22:07:46.784Z,92.50
2019-03-22T22:12:51.843Z,92.60
2019-03-22T22:17:57.068Z,92.50
2019-03-22T22:23:02.716Z,92.30
2019-03-22T22:28:08.657Z,92.40
2019-03-22T22:33:13.683Z,92.60
2019-03-22T22:38:19.273Z,92.70
2019-03-22T22:43:24.332Z,92.70
2019-03-22T22:48:30.653Z,92.70
2019-03-22T22:53:35.894Z,92.50
2019-03-22T22:58:40.983Z,92.90
2019-03-22T23:03:45.874Z,93.00
2019-03-22T23:08:52.204Z,92.90
2019-03-22T23:13:57.298Z,93.10
2019-03-22T23:19:03.638Z,93.20
2019-03-22T23:24:08.516Z,93.50
2019-03-22T23:29:13.550Z,93.70
2019-03-22T23:34:18.316Z,93.50
2019-03-22T23:39:24.762Z,93.50
2019-03-22T23:44:29.744Z,93.90
2019-03-22T23:49:34.532Z,94.30
2019-03-22T23:54:39.594Z,94.10
2019-03-22T23:59:44.403Z,94.50
